createdAt,value
2023-03-27T00:01:43.615Z,6.13
2023-03-27T00:04:18.187Z,5.22
2023-03-27T00:06:50.188Z,5.18
2023-03-27T00:09:21.805Z,5.38
2023-03-27T00:11:52.485Z,5.10
2023-03-27T00:14:24.104Z,6.07
2023-03-27T00:16:57.415Z,5.88
2023-03-27T00:19:28.322Z,5.82
2023-03-27T00:21:58.584Z,6.28
2023-03-27T00:24:29.633Z,5.72
2023-03-27T00:27:00.276Z,6.05
2023-03-27T00:29:30.982Z,5.88
2023-03-27T00:32:02.763Z,6.30
2023-03-27T00:34:33.714Z,6.10
2023-03-27T00:37:05.667Z,6.45
2023-03-27T00:39:36.395Z,5.40
2023-03-27T00:42:07.040Z,4.63
2023-03-27T00:44:39.671Z,4.90
2023-03-27T00:47:14.786Z,4.25
2023-03-27T00:49:46.394Z,5.90
2023-03-27T00:52:18.448Z,5.82
2023-03-27T00:54:50.307Z,6.20
2023-03-27T00:57:22.174Z,6.85
2023-03-27T00:59:56.271Z,7.07
2023-03-27T01:02:28.959Z,6.88
2023-03-27T01:05:00.632Z,7.80
2023-03-27T01:07:32.115Z,8.07
2023-03-27T01:10:03.266Z,7.82
2023-03-27T01:12:43.994Z,7.32
2023-03-27T01:15:33.094Z,6.90
2023-03-27T01:18:21.749Z,7.85
2023-03-27T01:21:51.936Z,7.18
2023-03-27T01:25:23.801Z,6.30
2023-03-27T01:28:24.550Z,5.88
2023-03-27T01:31:05.206Z,5.43
2023-03-27T01:34:23.745Z,7.35
2023-03-27T01:37:26.130Z,8.68
2023-03-27T01:40:06.241Z,9.75
2023-03-27T01:42:45.966Z,9.93
2023-03-27T01:45:22.592Z,10.77
2023-03-27T01:47:59.907Z,10.75
2023-03-27T01:50:38.154Z,14.75
2023-03-27T01:53:16.247Z,16.58
2023-03-27T01:55:54.828Z,16.60
2023-03-27T01:58:30.656Z,17.77
2023-03-27T02:01:04.400Z,19.80
2023-03-27T02:03:41.971Z,19.88
2023-03-27T02:06:18.190Z,20.38
2023-03-27T02:08:56.471Z,20.02
2023-03-27T02:11:34.007Z,20.27
2023-03-27T02:14:09.235Z,21.30
2023-03-27T02:16:46.495Z,15.93
2023-03-27T02:19:24.552Z,20.58
2023-03-27T02:21:55.433Z,20.13
2023-03-27T02:24:25.954Z,19.10
2023-03-27T02:27:06.716Z,19.83
2023-03-27T02:30:04.165Z,20.70
2023-03-27T02:32:47.090Z,17.80
2023-03-27T02:35:36.921Z,17.95
2023-03-27T02:38:17.665Z,19.52
2023-03-27T02:41:06.829Z,22.80
2023-03-27T02:43:58.074Z,21.65
2023-03-27T02:47:03.529Z,17.95
2023-03-27T02:49:40.545Z,18.40
2023-03-27T02:52:15.154Z,15.77
2023-03-27T02:54:53.996Z,16.23
2023-03-27T02:57:29.385Z,13.20
2023-03-27T03:00:25.669Z,11.32
2023-03-27T03:03:42.171Z,10.98
2023-03-27T03:06:31.082Z,10.50
2023-03-27T03:09:06.373Z,10.10
2023-03-27T03:11:39.845Z,9.57
2023-03-27T03:14:10.209Z,8.25
2023-03-27T03:16:42.386Z,6.78
2023-03-27T03:19:12.915Z,7.72
2023-03-27T03:21:46.624Z,6.53
2023-03-27T03:24:17.655Z,6.32
2023-03-27T03:26:50.221Z,9.45
2023-03-27T03:29:21.826Z,8.32
2023-03-27T03:32:20.110Z,8.63
2023-03-27T03:34:54.339Z,7.28
2023-03-27T03:37:28.904Z,6.28
2023-03-27T03:40:01.322Z,5.38
2023-03-27T03:42:35.600Z,5.45
2023-03-27T03:45:10.029Z,4.60
2023-03-27T03:47:43.144Z,4.18
2023-03-27T03:50:15.364Z,4.68
2023-03-27T03:52:48.646Z,3.90
2023-03-27T03:55:34.043Z,5.72
2023-03-27T03:58:12.442Z,4.75
2023-03-27T04:00:45.693Z,5.05
2023-03-27T04:03:32.940Z,5.00
2023-03-27T04:06:08.299Z,4.95
2023-03-27T04:08:44.178Z,4.50
2023-03-27T04:11:49.401Z,4.78
2023-03-27T04:14:50.220Z,5.35
2023-03-27T04:17:43.571Z,4.43
2023-03-27T04:20:18.692Z,4.60
2023-03-27T04:22:52.541Z,5.53
2023-03-27T04:25:26.500Z,6.05
2023-03-27T04:27:58.425Z,7.15
2023-03-27T04:30:37.106Z,5.80
2023-03-27T04:33:19.562Z,6.30
2023-03-27T04:36:08.411Z,6.75
2023-03-27T04:38:59.111Z,7.45
2023-03-27T04:41:30.439Z,6.43
2023-03-27T04:44:00.733Z,8.20
2023-03-27T04:46:33.606Z,7.57
2023-03-27T04:49:10.137Z,5.93
2023-03-27T04:52:05.959Z,7.45
2023-03-27T04:54:37.462Z,7.03
2023-03-27T04:57:10.126Z,7.53
2023-03-27T04:59:41.120Z,7.53
2023-03-27T05:02:31.378Z,7.30
2023-03-27T05:05:09.145Z,9.50
2023-03-27T05:07:46.515Z,6.97
2023-03-27T05:10:22.219Z,7.55
2023-03-27T05:12:57.877Z,4.80
2023-03-27T05:15:32.402Z,3.85
2023-03-27T05:18:06.408Z,3.00
2023-03-27T05:20:37.371Z,4.30
2023-03-27T05:23:14.102Z,3.33
2023-03-27T05:25:59.408Z,2.83
2023-03-27T05:28:39.774Z,3.00
2023-03-27T05:31:10.831Z,3.35
2023-03-27T05:33:52.951Z,4.93
2023-03-27T05:36:24.309Z,2.78
2023-03-27T05:38:57.978Z,2.53
2023-03-27T05:41:35.472Z,3.10
2023-03-27T05:44:09.395Z,3.95
2023-03-27T05:46:44.015Z,2.83
2023-03-27T05:49:33.546Z,2.88
2023-03-27T05:52:12.474Z,3.15
2023-03-27T05:54:44.847Z,2.75
2023-03-27T05:57:15.430Z,3.60
2023-03-27T05:59:49.058Z,3.67
2023-03-27T06:02:25.470Z,4.10
2023-03-27T06:05:01.424Z,4.93
2023-03-27T06:07:42.462Z,4.68
2023-03-27T06:10:20.387Z,5.35
2023-03-27T06:13:01.666Z,4.97
2023-03-27T06:15:43.775Z,6.82
2023-03-27T06:18:22.682Z,5.40
2023-03-27T06:20:53.350Z,5.38
2023-03-27T06:23:24.208Z,7.30
2023-03-27T06:25:57.121Z,7.50
2023-03-27T06:28:29.122Z,8.07
2023-03-27T06:31:00.290Z,8.07
2023-03-27T06:33:35.624Z,8.70
2023-03-27T06:36:12.451Z,9.80
2023-03-27T06:38:45.800Z,9.02
2023-03-27T06:41:17.961Z,8.07
2023-03-27T06:44:07.682Z,7.22
2023-03-27T06:46:51.310Z,9.50
2023-03-27T06:49:36.047Z,8.60
2023-03-27T06:52:14.836Z,8.90
2023-03-27T06:54:46.637Z,9.63
2023-03-27T06:57:19.095Z,7.85
2023-03-27T06:59:55.933Z,7.75
2023-03-27T07:02:31.722Z,7.63
2023-03-27T07:05:41.922Z,6.47
2023-03-27T07:10:59.912Z,6.25
2023-03-27T07:16:24.751Z,4.68
2023-03-27T07:18:59.420Z,4.72
2023-03-27T07:21:32.367Z,4.13
2023-03-27T07:24:04.395Z,3.83
2023-03-27T07:26:36.833Z,3.33
2023-03-27T07:29:20.357Z,3.65
2023-03-27T07:31:59.536Z,2.60
2023-03-27T07:34:38.273Z,3.20
2023-03-27T07:37:11.445Z,2.35
2023-03-27T07:39:51.057Z,2.35
2023-03-27T07:42:22.228Z,2.45
2023-03-27T07:45:15.295Z,2.50
2023-03-27T07:47:47.652Z,2.00
2023-03-27T07:50:21.777Z,2.33
2023-03-27T07:52:53.132Z,2.42
2023-03-27T07:55:23.995Z,2.97
2023-03-27T07:58:04.277Z,2.20
2023-03-27T08:00:39.064Z,1.75
2023-03-27T08:03:19.004Z,2.08
2023-03-27T08:05:58.944Z,2.25
2023-03-27T08:08:31.856Z,1.70
2023-03-27T08:11:06.251Z,2.00
2023-03-27T08:13:42.176Z,2.10
2023-03-27T08:16:17.327Z,1.80
2023-03-27T08:18:49.851Z,2.00
2023-03-27T08:21:21.761Z,2.20
2023-03-27T08:23:57.338Z,1.83
2023-03-27T08:29:12.344Z,2.22
2023-03-27T08:31:44.894Z,2.20
2023-03-27T08:34:15.371Z,2.05
2023-03-27T08:36:53.781Z,1.77
2023-03-27T08:39:25.716Z,1.70
2023-03-27T08:42:03.970Z,1.63
2023-03-27T08:44:40.323Z,1.98
2023-03-27T08:47:24.798Z,1.70
2023-03-27T08:50:13.926Z,1.80
2023-03-27T08:52:52.367Z,1.75
2023-03-27T08:55:40.576Z,1.30
2023-03-27T08:58:22.402Z,1.85
2023-03-27T09:01:26.718Z,1.70
2023-03-27T09:04:13.064Z,1.98
2023-03-27T09:07:00.250Z,1.65
2023-03-27T09:09:46.522Z,1.88
2023-03-27T09:12:40.815Z,2.05
2023-03-27T09:15:17.925Z,2.20
2023-03-27T09:17:58.616Z,2.55
2023-03-27T09:20:37.720Z,2.25
2023-03-27T09:23:15.435Z,1.73
2023-03-27T09:26:17.515Z,2.90
2023-03-27T09:29:05.772Z,2.20
2023-03-27T09:31:48.089Z,1.80
2023-03-27T09:34:25.669Z,2.35
2023-03-27T09:37:00.955Z,1.98
2023-03-27T09:39:38.757Z,2.25
2023-03-27T09:42:40.762Z,2.40
2023-03-27T09:45:16.488Z,2.30
2023-03-27T09:48:07.364Z,2.70
2023-03-27T09:50:49.461Z,2.67
2023-03-27T09:53:32.645Z,2.33
2023-03-27T09:56:16.844Z,2.50
2023-03-27T09:58:53.366Z,2.55
2023-03-27T10:01:34.568Z,1.30
2023-03-27T10:04:21.974Z,1.80
2023-03-27T10:07:05.552Z,2.00
2023-03-27T10:10:08.524Z,1.90
2023-03-27T10:12:59.372Z,2.78
2023-03-27T10:15:40.460Z,2.13
2023-03-27T10:18:27.236Z,1.80
2023-03-27T10:21:13.389Z,1.92
2023-03-27T10:23:49.430Z,2.13
2023-03-27T10:26:35.118Z,2.13
2023-03-27T10:29:25.744Z,1.60
2023-03-27T10:31:59.117Z,2.20
2023-03-27T10:34:40.157Z,1.98
2023-03-27T10:37:32.166Z,1.52
2023-03-27T10:40:42.601Z,1.40
2023-03-27T10:43:32.349Z,2.20
2023-03-27T10:46:07.326Z,1.77
2023-03-27T10:48:51.522Z,1.80
2023-03-27T10:51:46.161Z,1.73
2023-03-27T10:54:36.398Z,2.63
2023-03-27T10:57:15.312Z,2.10
2023-03-27T10:59:53.960Z,1.70
2023-03-27T11:02:38.726Z,1.90
2023-03-27T11:05:17.006Z,1.95
2023-03-27T11:07:55.907Z,1.70
2023-03-27T11:10:35.237Z,1.42
2023-03-27T11:13:14.693Z,1.33
2023-03-27T11:15:53.935Z,1.58
2023-03-27T11:18:53.166Z,1.38
2023-03-27T11:21:33.633Z,1.27
2023-03-27T11:24:14.452Z,1.67
2023-03-27T11:27:08.087Z,1.70
2023-03-27T11:29:47.113Z,1.88
2023-03-27T11:32:30.377Z,1.92
2023-03-27T11:35:13.606Z,1.58
2023-03-27T11:38:01.846Z,1.70
2023-03-27T11:40:44.096Z,1.42
2023-03-27T11:43:17.495Z,1.45
2023-03-27T11:45:57.499Z,2.00
2023-03-27T11:49:02.389Z,1.85
2023-03-27T11:51:51.554Z,1.55
2023-03-27T11:54:40.818Z,1.77
2023-03-27T11:57:23.469Z,1.60
2023-03-27T12:00:23.164Z,1.50
2023-03-27T12:03:42.086Z,1.38
2023-03-27T12:06:31.738Z,1.70
2023-03-27T12:09:44.981Z,1.85
2023-03-27T12:13:17.665Z,1.40
2023-03-27T12:16:22.709Z,1.25
2023-03-27T12:19:28.387Z,1.38
2023-03-27T12:22:31.584Z,1.67
2023-03-27T12:25:41.103Z,1.63
2023-03-27T12:28:28.397Z,1.40
2023-03-27T12:31:36.365Z,1.50
2023-03-27T12:34:19.165Z,1.35
2023-03-27T12:36:52.451Z,1.35
2023-03-27T12:39:28.880Z,1.38
2023-03-27T12:42:16.158Z,1.02
2023-03-27T12:45:15.097Z,1.30
2023-03-27T12:48:18.280Z,1.27
2023-03-27T12:50:59.740Z,1.65
2023-03-27T12:53:57.179Z,1.00
2023-03-27T12:56:38.438Z,1.27
2023-03-27T12:59:24.099Z,1.00
2023-03-27T13:03:00.238Z,1.13
2023-03-27T13:06:27.374Z,1.02
2023-03-27T13:09:37.277Z,1.25
2023-03-27T13:12:31.123Z,1.13
2023-03-27T13:15:45.169Z,1.05
2023-03-27T13:18:50.228Z,0.90
2023-03-27T13:21:36.375Z,1.60
2023-03-27T13:24:25.022Z,0.85
2023-03-27T13:27:18.095Z,0.77
2023-03-27T13:29:51.863Z,1.20
2023-03-27T13:32:38.146Z,1.00
2023-03-27T13:35:40.828Z,1.20
2023-03-27T13:38:14.789Z,0.75
2023-03-27T13:41:55.330Z,1.10
2023-03-27T13:44:55.513Z,1.17
2023-03-27T13:47:59.860Z,1.38
2023-03-27T13:50:57.928Z,1.15
2023-03-27T13:53:42.834Z,1.00
2023-03-27T13:56:47.468Z,1.13
2023-03-27T14:00:24.764Z,1.00
2023-03-27T14:04:05.658Z,0.75
2023-03-27T14:07:19.513Z,1.05
2023-03-27T14:10:25.084Z,0.95
2023-03-27T14:13:26.806Z,0.93
2023-03-27T14:16:42.118Z,0.63
2023-03-27T14:19:47.349Z,0.90
2023-03-27T14:22:29.304Z,0.68
2023-03-27T14:25:04.719Z,1.00
2023-03-27T14:28:04.839Z,1.02
2023-03-27T14:30:45.678Z,1.00
2023-03-27T14:33:39.292Z,0.80
2023-03-27T14:36:16.705Z,0.90
2023-03-27T14:38:48.154Z,1.75
2023-03-27T14:41:28.664Z,1.20
2023-03-27T14:44:04.665Z,1.02
2023-03-27T14:46:45.373Z,1.52
2023-03-27T14:49:22.631Z,1.45
2023-03-27T14:52:04.496Z,1.17
2023-03-27T14:54:59.556Z,1.30
2023-03-27T14:57:37.435Z,1.20
2023-03-27T15:00:16.578Z,1.30
2023-03-27T15:02:52.350Z,1.10
2023-03-27T15:05:24.962Z,1.00
2023-03-27T15:08:03.010Z,1.08
2023-03-27T15:10:54.616Z,1.23
2023-03-27T15:13:51.936Z,0.90
2023-03-27T15:16:34.485Z,0.88
2023-03-27T15:19:12.427Z,0.90
2023-03-27T15:21:54.690Z,0.93
2023-03-27T15:24:36.854Z,0.82
2023-03-27T15:27:11.696Z,1.10
2023-03-27T15:29:46.682Z,1.00
2023-03-27T15:32:22.418Z,1.13
2023-03-27T15:34:58.185Z,1.25
2023-03-27T15:37:31.935Z,1.20
2023-03-27T15:40:28.668Z,0.95
2023-03-27T15:43:08.073Z,0.82
2023-03-27T15:45:41.950Z,1.02
2023-03-27T15:48:20.854Z,1.05
2023-03-27T15:50:59.878Z,1.40
2023-03-27T15:53:38.358Z,1.30
2023-03-27T15:56:22.281Z,0.90
2023-03-27T15:58:55.413Z,1.05
2023-03-27T16:01:35.042Z,0.98
2023-03-27T16:04:09.789Z,1.55
2023-03-27T16:06:44.245Z,0.90
2023-03-27T16:09:26.543Z,0.95
2023-03-27T16:11:58.709Z,1.50
2023-03-27T16:14:32.946Z,2.25
2023-03-27T16:17:22.553Z,1.38
2023-03-27T16:19:56.629Z,1.00
2023-03-27T16:22:29.804Z,1.27
2023-03-27T16:25:03.880Z,0.93
2023-03-27T16:27:38.039Z,1.17
2023-03-27T16:30:21.443Z,1.10
2023-03-27T16:35:23.393Z,1.17
2023-03-27T16:37:54.926Z,1.48
2023-03-27T16:40:26.987Z,1.75
2023-03-27T16:42:57.951Z,1.77
2023-03-27T16:45:28.615Z,1.30
2023-03-27T16:47:59.614Z,1.58
2023-03-27T16:50:31.160Z,1.25
2023-03-27T16:53:02.161Z,1.27
2023-03-27T16:55:33.911Z,1.75
2023-03-27T16:58:05.127Z,1.52
2023-03-27T17:00:35.635Z,1.55
2023-03-27T17:03:06.528Z,1.27
2023-03-27T17:05:36.837Z,1.15
2023-03-27T17:08:08.872Z,1.70
2023-03-27T17:10:40.826Z,1.15
2023-03-27T17:13:11.807Z,1.65
2023-03-27T17:15:42.042Z,1.33
2023-03-27T17:18:12.978Z,2.00
2023-03-27T17:20:43.337Z,4.72
2023-03-27T17:23:15.290Z,8.80
2023-03-27T17:25:48.346Z,3.58
2023-03-27T17:31:03.196Z,9.20
2023-03-27T17:33:36.839Z,18.58
2023-03-27T17:36:11.944Z,15.30
2023-03-27T17:38:43.309Z,14.65
2023-03-27T17:41:17.625Z,11.27
2023-03-27T17:43:49.796Z,9.63
2023-03-27T17:46:20.358Z,9.50
2023-03-27T17:48:51.737Z,7.72
2023-03-27T17:51:23.012Z,26.23
2023-03-27T17:53:54.234Z,43.47
2023-03-27T17:56:26.329Z,44.00
2023-03-27T17:58:58.186Z,48.73
2023-03-27T18:01:29.111Z,22.38
2023-03-27T18:04:00.779Z,19.35
2023-03-27T18:06:31.419Z,21.27
2023-03-27T18:09:03.563Z,21.83
2023-03-27T18:11:35.467Z,28.52
2023-03-27T18:14:06.996Z,11.95
2023-03-27T18:16:38.245Z,14.50
2023-03-27T18:19:10.803Z,19.08
2023-03-27T18:21:41.367Z,14.38
2023-03-27T18:24:12.574Z,16.95
2023-03-27T18:26:44.499Z,26.73
2023-03-27T18:29:15.951Z,25.13
2023-03-27T18:31:48.322Z,24.55
2023-03-27T18:34:19.770Z,19.73
2023-03-27T18:36:52.944Z,16.35
2023-03-27T18:39:24.216Z,15.25
2023-03-27T18:41:58.836Z,15.52
2023-03-27T18:44:29.668Z,14.85
2023-03-27T18:47:00.501Z,22.15
2023-03-27T18:49:32.457Z,22.08
2023-03-27T18:52:03.073Z,16.42
2023-03-27T18:54:35.200Z,16.38
2023-03-27T18:57:07.450Z,16.35
2023-03-27T18:59:38.328Z,20.93
2023-03-27T19:02:10.798Z,25.05
2023-03-27T19:04:42.362Z,17.88
2023-03-27T19:07:14.032Z,24.50
2023-03-27T19:09:45.073Z,27.63
2023-03-27T19:12:17.013Z,27.35
2023-03-27T19:15:19.457Z,26.80
2023-03-27T19:18:15.037Z,24.92
2023-03-27T19:20:46.652Z,23.30
2023-03-27T19:23:35.193Z,22.88
2023-03-27T19:26:11.125Z,23.13
2023-03-27T19:28:47.753Z,20.75
2023-03-27T19:31:18.771Z,15.20
2023-03-27T19:33:51.253Z,11.73
2023-03-27T19:36:25.795Z,9.00
2023-03-27T19:38:56.401Z,8.43
2023-03-27T19:41:28.996Z,8.15
2023-03-27T19:44:01.249Z,11.45
2023-03-27T19:46:32.413Z,13.68
2023-03-27T19:49:04.254Z,15.70
2023-03-27T19:51:47.359Z,16.48
2023-03-27T19:54:18.534Z,15.70
2023-03-27T19:56:49.534Z,16.05
2023-03-27T19:59:30.363Z,15.93
2023-03-27T20:02:01.937Z,17.48
2023-03-27T20:04:32.449Z,15.50
2023-03-27T20:07:07.205Z,13.90
2023-03-27T20:09:38.941Z,10.55
2023-03-27T20:12:11.417Z,11.48
2023-03-27T20:14:46.498Z,11.65
2023-03-27T20:17:27.951Z,11.32
2023-03-27T20:20:00.981Z,10.25
2023-03-27T20:22:40.655Z,9.77
2023-03-27T20:25:14.497Z,11.60
2023-03-27T20:27:47.021Z,12.35
2023-03-27T20:30:19.133Z,11.05
2023-03-27T20:32:54.142Z,11.93
2023-03-27T20:35:25.640Z,11.57
2023-03-27T20:38:04.532Z,10.60
2023-03-27T20:40:53.130Z,11.15
2023-03-27T20:43:31.163Z,8.57
2023-03-27T20:46:05.218Z,11.00
2023-03-27T20:48:42.414Z,10.88
2023-03-27T20:51:25.133Z,10.52
2023-03-27T20:53:58.831Z,11.65
2023-03-27T20:56:29.520Z,11.27
2023-03-27T20:59:00.298Z,9.15
2023-03-27T21:01:35.068Z,10.80
2023-03-27T21:04:06.979Z,9.55
2023-03-27T21:06:38.026Z,9.20
2023-03-27T21:09:13.707Z,8.25
2023-03-27T21:11:45.537Z,9.52
2023-03-27T21:14:16.529Z,8.30
2023-03-27T21:16:48.468Z,8.60
2023-03-27T21:19:19.883Z,5.50
2023-03-27T21:21:50.830Z,4.60
2023-03-27T21:24:22.578Z,5.47
2023-03-27T21:26:53.400Z,5.47
2023-03-27T21:29:26.310Z,5.32
2023-03-27T21:31:58.119Z,5.75
2023-03-27T21:34:29.320Z,6.97
2023-03-27T21:36:59.995Z,6.03
2023-03-27T21:39:30.802Z,6.18
2023-03-27T21:42:01.348Z,5.00
2023-03-27T21:44:32.204Z,6.70
2023-03-27T21:47:04.308Z,4.55
2023-03-27T21:49:35.878Z,4.50
2023-03-27T21:52:07.103Z,4.22
2023-03-27T21:54:38.148Z,3.25
2023-03-27T21:57:09.602Z,2.47
2023-03-27T21:59:40.926Z,2.78
2023-03-27T22:02:13.337Z,3.50
2023-03-27T22:04:44.316Z,2.40
2023-03-27T22:07:14.678Z,2.50
2023-03-27T22:09:46.592Z,3.50
2023-03-27T22:12:17.999Z,2.42
2023-03-27T22:14:49.156Z,3.63
2023-03-27T22:17:21.266Z,3.40
2023-03-27T22:19:54.691Z,3.05
2023-03-27T22:22:26.132Z,2.63
2023-03-27T22:24:57.125Z,1.90
2023-03-27T22:27:27.939Z,2.05
2023-03-27T22:29:58.836Z,3.53
2023-03-27T22:32:31.123Z,2.97
2023-03-27T22:35:01.972Z,4.45
2023-03-27T22:37:32.393Z,4.25
2023-03-27T22:40:03.360Z,1.80
2023-03-27T22:42:34.371Z,2.03
2023-03-27T22:45:05.808Z,1.83
2023-03-27T22:47:37.810Z,4.75
2023-03-27T22:50:09.987Z,3.70
2023-03-27T22:52:40.585Z,1.70
2023-03-27T22:55:11.975Z,2.58
2023-03-27T22:57:42.376Z,2.35
2023-03-27T23:00:15.049Z,2.88
2023-03-27T23:02:46.998Z,2.50
2023-03-27T23:05:18.197Z,4.07
2023-03-27T23:07:48.887Z,2.47
2023-03-27T23:10:20.591Z,2.65
2023-03-27T23:12:51.387Z,1.67
2023-03-27T23:15:29.899Z,2.30
2023-03-27T23:18:02.529Z,2.17
2023-03-27T23:20:33.420Z,2.90
2023-03-27T23:23:03.749Z,2.20
2023-03-27T23:25:34.485Z,3.75
2023-03-27T23:28:04.834Z,1.92
2023-03-27T23:30:35.615Z,1.85
2023-03-27T23:33:07.891Z,2.08
2023-03-27T23:35:38.642Z,1.83
2023-03-27T23:38:09.449Z,2.40
2023-03-27T23:40:40.510Z,2.78
2023-03-27T23:43:10.992Z,1.77
2023-03-27T23:45:41.768Z,2.28
2023-03-27T23:48:13.946Z,2.30
2023-03-27T23:50:44.904Z,2.38
2023-03-27T23:53:15.308Z,1.85
2023-03-27T23:55:46.442Z,2.15
2023-03-27T23:58:17.185Z,1.25
